Time;durP1;ratioP1;P1;durP2;ratioP2;P2;SDS_P1;SDS_P2;PMS_P1;PMS_P2;Temp;Humidity;BMP_temperature;BMP_pressure;BME280_temperature;BME280_humidity;BME280_pressure;Samples;Min_cycle;Max_cycle;Signal;HPM_P1;HPM_P2
2022/08/31 00:05:47;;;;;;;5.78;4.57;;;20.30;48.30;;;;;;5074183;28;20164;-42
2022/08/31 00:08:14;;;;;;;4.73;4.07;;;20.30;48.40;;;;;;5074427;28;20169;-43
2022/08/31 00:10:44;;;;;;;5.63;3.97;;;20.30;48.30;;;;;;5073107;28;20498;-42
2022/08/31 00:13:10;;;;;;;5.57;4.40;;;20.30;48.40;;;;;;5074782;28;20284;-42
2022/08/31 00:15:36;;;;;;;4.00;3.63;;;20.30;48.50;;;;;;5073995;28;20256;-42
2022/08/31 00:18:03;;;;;;;6.27;3.97;;;20.20;48.30;;;;;;5074106;28;20457;-42
2022/08/31 00:20:29;;;;;;;5.07;4.55;;;20.20;48.40;;;;;;5074384;28;20183;-42
2022/08/31 00:22:55;;;;;;;5.90;4.93;;;20.10;48.60;;;;;;5074025;28;20213;-42
2022/08/31 00:25:21;;;;;;;5.93;4.43;;;20.10;48.60;;;;;;5074023;28;20210;-41
2022/08/31 00:27:46;;;;;;;7.30;4.90;;;20.10;48.60;;;;;;5073800;28;20176;-42
2022/08/31 00:30:12;;;;;;;6.40;5.33;;;20.00;48.60;;;;;;5073939;28;20177;-42
2022/08/31 00:32:38;;;;;;;5.67;5.07;;;20.00;48.60;;;;;;5073832;28;20437;-42
2022/08/31 00:35:06;;;;;;;8.50;5.10;;;20.00;48.50;;;;;;5073688;28;20167;-42
2022/08/31 00:37:31;;;;;;;5.63;4.57;;;20.00;48.60;;;;;;5073672;28;20222;-42
2022/08/31 00:39:57;;;;;;;8.70;4.80;;;20.00;48.70;;;;;;5074005;28;20169;-42
2022/08/31 00:42:23;;;;;;;9.83;5.57;;;20.00;48.70;;;;;;5073675;28;20856;-42
2022/08/31 00:44:50;;;;;;;13.60;4.13;;;19.90;48.70;;;;;;5073661;28;20531;-42
2022/08/31 00:47:17;;;;;;;6.95;4.38;;;20.00;48.80;;;;;;5073360;28;20478;-42
2022/08/31 00:49:50;;;;;;;6.55;3.60;;;19.90;48.60;;;;;;5073402;28;20176;-42
2022/08/31 00:52:21;;;;;;;6.75;4.80;;;19.90;48.80;;;;;;5073670;28;20263;-42
2022/08/31 00:54:52;;;;;;;4.55;4.07;;;19.90;48.90;;;;;;5073570;28;20158;-42
2022/08/31 00:57:19;;;;;;;5.90;3.80;;;19.90;48.90;;;;;;5073237;28;20204;-42
2022/08/31 00:59:47;;;;;;;4.85;4.40;;;19.80;48.70;;;;;;5073367;28;20183;-42
2022/08/31 01:02:13;;;;;;;5.30;4.70;;;19.80;48.70;;;;;;5073034;28;20168;-42
2022/08/31 01:04:39;;;;;;;7.00;5.63;;;19.80;48.90;;;;;;5073245;28;20169;-42
2022/08/31 01:07:07;;;;;;;10.03;7.00;;;19.80;49.00;;;;;;5073079;28;20255;-42
2022/08/31 01:09:38;;;;;;;13.68;9.80;;;19.70;49.10;;;;;;5073152;28;20172;-42
2022/08/31 01:12:06;;;;;;;25.15;15.35;;;19.70;49.10;;;;;;5073307;28;20180;-42
2022/08/31 01:14:34;;;;;;;25.45;18.15;;;19.80;49.10;;;;;;5072958;28;20251;-42
2022/08/31 01:17:00;;;;;;;20.83;15.77;;;19.70;49.20;;;;;;5072821;28;20250;-43
2022/08/31 01:19:31;;;;;;;20.23;14.00;;;19.70;49.20;;;;;;5072962;28;20202;-42
2022/08/31 01:22:27;;;;;;;17.08;11.75;;;19.70;49.20;;;;;;5073098;28;20260;-42
2022/08/31 01:24:54;;;;;;;17.13;12.60;;;19.70;49.20;;;;;;5072854;28;20164;-41
2022/08/31 01:27:27;;;;;;;19.33;11.27;;;19.70;49.10;;;;;;5072525;28;20267;-41
2022/08/31 01:29:57;;;;;;;16.58;10.75;;;19.70;49.00;;;;;;5072794;28;20290;-42
2022/08/31 01:32:22;;;;;;;20.27;10.20;;;19.70;49.00;;;;;;5072632;28;20279;-42
2022/08/31 01:34:48;;;;;;;14.27;9.80;;;19.70;49.00;;;;;;5072969;28;20264;-42
2022/08/31 01:37:14;;;;;;;14.70;9.70;;;19.70;49.00;;;;;;5072394;28;20753;-42
2022/08/31 01:39:40;;;;;;;11.55;7.60;;;19.60;48.90;;;;;;5072570;28;20654;-41
2022/08/31 01:42:06;;;;;;;9.90;8.73;;;19.70;49.10;;;;;;5072691;28;20181;-42
2022/08/31 01:44:32;;;;;;;7.63;5.78;;;19.60;49.00;;;;;;5072376;28;20172;-42
2022/08/31 01:46:58;;;;;;;11.60;6.90;;;19.60;49.10;;;;;;5072108;28;20582;-42
2022/08/31 01:49:24;;;;;;;11.27;7.13;;;19.60;49.10;;;;;;5072409;28;20409;-42
2022/08/31 01:51:51;;;;;;;11.90;6.45;;;19.60;49.10;;;;;;5072405;28;20168;-41
2022/08/31 01:54:19;;;;;;;7.57;5.03;;;19.60;49.10;;;;;;5072311;28;20188;-42
2022/08/31 01:56:46;;;;;;;5.88;4.55;;;19.60;49.30;;;;;;5072098;28;20245;-42
2022/08/31 01:59:15;;;;;;;6.22;5.13;;;19.60;49.20;;;;;;5072494;28;20169;-41
2022/08/31 02:01:44;;;;;;;6.72;5.88;;;19.50;49.10;;;;;;5072344;28;20177;-43
2022/08/31 02:04:11;;;;;;;6.72;6.03;;;19.50;49.10;;;;;;5072558;28;20200;-42
2022/08/31 02:06:41;;;;;;;11.85;5.78;;;19.50;49.20;;;;;;5072327;28;20200;-42
2022/08/31 02:09:09;;;;;;;7.45;5.10;;;19.50;49.20;;;;;;5072969;28;20523;-43
2022/08/31 02:11:35;;;;;;;7.20;5.18;;;19.50;49.20;;;;;;5072174;28;20173;-44
2022/08/31 02:14:01;;;;;;;7.00;4.60;;;19.50;49.50;;;;;;5072086;28;20271;-43
2022/08/31 02:16:27;;;;;;;6.53;4.33;;;19.50;49.30;;;;;;5071965;28;20290;-42
2022/08/31 02:18:53;;;;;;;5.37;4.87;;;19.40;49.30;;;;;;5072319;28;20402;-42
2022/08/31 02:21:19;;;;;;;6.88;5.80;;;19.40;49.40;;;;;;5071929;28;20180;-42
2022/08/31 02:23:45;;;;;;;6.30;4.90;;;19.40;49.30;;;;;;5072243;28;20203;-44
2022/08/31 02:26:10;;;;;;;5.10;4.53;;;19.40;49.30;;;;;;5072002;28;20226;-42
2022/08/31 02:28:37;;;;;;;5.40;4.30;;;19.40;49.20;;;;;;5072053;28;20265;-41
2022/08/31 02:31:03;;;;;;;5.80;4.38;;;19.40;49.20;;;;;;5072048;28;20199;-44
2022/08/31 02:33:29;;;;;;;5.60;4.88;;;19.30;49.10;;;;;;5071889;28;20188;-43
2022/08/31 02:35:55;;;;;;;12.40;5.40;;;19.30;49.00;;;;;;5071578;28;20237;-44
2022/08/31 02:38:21;;;;;;;7.07;5.70;;;19.30;49.10;;;;;;5071871;28;20188;-43
2022/08/31 02:40:48;;;;;;;5.35;4.35;;;19.30;49.20;;;;;;5071865;28;20716;-44
2022/08/31 02:43:15;;;;;;;5.55;4.32;;;19.30;49.20;;;;;;5072151;28;20567;-42
2022/08/31 02:45:40;;;;;;;5.65;4.70;;;19.20;49.10;;;;;;5071641;28;20210;-43
2022/08/31 02:48:08;;;;;;;5.30;4.60;;;19.20;49.30;;;;;;5071783;28;20176;-42
2022/08/31 02:50:39;;;;;;;19.02;5.22;;;19.20;49.20;;;;;;5071722;28;20183;-44
2022/08/31 02:53:04;;;;;;;6.00;4.70;;;19.20;49.30;;;;;;5071763;28;20189;-43
2022/08/31 02:55:30;;;;;;;5.80;4.40;;;19.10;49.50;;;;;;5071721;28;20181;-42
2022/08/31 02:57:56;;;;;;;6.50;4.80;;;19.10;49.50;;;;;;5073335;28;20195;-43
2022/08/31 03:00:23;;;;;;;5.00;4.10;;;19.10;49.50;;;;;;5075593;28;20245;-43
2022/08/31 03:02:49;;;;;;;4.75;4.25;;;19.10;49.60;;;;;;5075302;28;20208;-43
2022/08/31 03:05:15;;;;;;;5.05;4.25;;;19.10;49.60;;;;;;5075352;28;20180;-42
2022/08/31 03:07:41;;;;;;;5.25;4.05;;;19.10;49.50;;;;;;5075382;28;20238;-41
2022/08/31 03:10:10;;;;;;;5.83;4.17;;;19.10;49.50;;;;;;5075329;28;20185;-42
2022/08/31 03:12:37;;;;;;;6.20;4.45;;;19.10;49.60;;;;;;5075234;28;20195;-42
2022/08/31 03:15:05;;;;;;;6.72;4.35;;;19.10;49.50;;;;;;5075267;28;20636;-42
2022/08/31 03:17:31;;;;;;;5.82;5.22;;;19.10;49.50;;;;;;5074831;28;20203;-42
2022/08/31 03:19:59;;;;;;;7.28;5.25;;;19.00;49.50;;;;;;5075331;28;20203;-42
2022/08/31 03:22:26;;;;;;;6.50;4.15;;;19.00;49.40;;;;;;5075038;28;20676;-42
2022/08/31 03:24:52;;;;;;;5.97;4.57;;;19.00;49.50;;;;;;5075036;28;20172;-42
2022/08/31 03:27:18;;;;;;;6.70;4.60;;;19.00;49.70;;;;;;5074899;28;20176;-43
2022/08/31 03:29:44;;;;;;;8.67;5.23;;;19.00;49.60;;;;;;5075122;28;20188;-41
2022/08/31 03:32:10;;;;;;;8.13;5.73;;;18.90;49.40;;;;;;5074866;28;20199;-42
2022/08/31 03:34:36;;;;;;;7.83;5.07;;;18.90;49.30;;;;;;5074917;28;20406;-42
2022/08/31 03:37:02;;;;;;;6.03;5.30;;;18.90;49.30;;;;;;5073325;28;20458;-42
2022/08/31 03:39:28;;;;;;;9.43;5.15;;;18.90;49.50;;;;;;5074862;28;20399;-44
2022/08/31 03:41:54;;;;;;;6.73;5.27;;;18.90;49.40;;;;;;5075092;28;20172;-44
2022/08/31 03:44:22;;;;;;;7.07;5.90;;;18.80;49.50;;;;;;5074755;28;20695;-43
2022/08/31 03:46:49;;;;;;;8.90;5.07;;;18.80;49.60;;;;;;5074510;28;20252;-43
2022/08/31 03:49:17;;;;;;;7.43;5.05;;;18.80;49.70;;;;;;5074648;28;20648;-43
2022/08/31 03:51:44;;;;;;;5.75;5.07;;;18.80;49.60;;;;;;5074583;28;20188;-43
2022/08/31 03:54:10;;;;;;;8.65;5.07;;;18.80;49.60;;;;;;5074755;28;20201;-43
2022/08/31 03:56:37;;;;;;;8.40;5.97;;;18.80;49.60;;;;;;5074299;28;20807;-42
2022/08/31 03:59:03;;;;;;;9.05;6.10;;;18.80;49.40;;;;;;5074540;28;20173;-43
2022/08/31 04:01:29;;;;;;;7.83;5.57;;;18.80;49.40;;;;;;5074413;28;20230;-43
2022/08/31 04:03:55;;;;;;;7.70;5.35;;;18.70;49.70;;;;;;5074185;28;20941;-44
2022/08/31 04:06:21;;;;;;;6.60;4.80;;;18.70;50.10;;;;;;5074169;28;20168;-44
2022/08/31 04:08:47;;;;;;;7.55;6.00;;;18.80;50.20;;;;;;5073810;28;20196;-44
2022/08/31 04:11:15;;;;;;;9.13;5.80;;;18.80;49.90;;;;;;5074289;28;20578;-43
2022/08/31 04:13:42;;;;;;;7.57;6.15;;;18.80;49.80;;;;;;5074027;28;20472;-42
2022/08/31 04:16:10;;;;;;;7.65;5.88;;;18.80;49.90;;;;;;5073920;28;20200;-42
2022/08/31 04:18:41;;;;;;;9.98;6.13;;;18.80;49.90;;;;;;5074119;28;20168;-43
2022/08/31 04:21:19;;;;;;;11.98;8.15;;;18.80;49.90;;;;;;5074194;28;20226;-42
2022/08/31 04:23:45;;;;;;;9.43;7.30;;;18.90;49.90;;;;;;5073915;28;20580;-41
2022/08/31 04:26:16;;;;;;;13.07;8.65;;;18.90;49.90;;;;;;5073794;28;20197;-43
2022/08/31 04:28:42;;;;;;;13.25;10.52;;;18.90;49.90;;;;;;5073967;28;20209;-43
2022/08/31 04:31:07;;;;;;;20.60;12.83;;;18.90;49.80;;;;;;5074058;28;20168;-44
2022/08/31 04:33:36;;;;;;;14.53;8.47;;;18.80;49.90;;;;;;5073817;28;20683;-44
2022/08/31 04:36:06;;;;;;;12.82;8.90;;;18.80;50.00;;;;;;5073618;28;20164;-43
2022/08/31 04:38:32;;;;;;;8.90;5.80;;;18.80;50.00;;;;;;5073640;28;20283;-43
2022/08/31 04:41:03;;;;;;;9.93;6.40;;;18.80;50.00;;;;;;5073821;28;20199;-42
2022/08/31 04:43:29;;;;;;;12.27;8.75;;;18.80;50.10;;;;;;5073552;28;20196;-42
2022/08/31 04:45:55;;;;;;;13.13;6.45;;;18.80;50.20;;;;;;5073409;28;20161;-43
2022/08/31 04:48:21;;;;;;;11.23;6.00;;;18.90;50.30;;;;;;5073519;28;20540;-42
2022/08/31 04:50:49;;;;;;;7.37;5.37;;;18.90;50.40;;;;;;5073487;28;20253;-42
2022/08/31 04:53:15;;;;;;;10.25;6.20;;;18.90;50.30;;;;;;5073641;28;20201;-42
2022/08/31 04:55:42;;;;;;;11.02;7.10;;;18.90;50.30;;;;;;5071873;28;20650;-42
2022/08/31 04:58:08;;;;;;;7.20;5.82;;;18.90;50.30;;;;;;5073222;28;20295;-43
2022/08/31 05:00:36;;;;;;;10.35;5.72;;;18.90;50.20;;;;;;5073390;28;20173;-43
2022/08/31 05:03:01;;;;;;;12.00;6.32;;;18.90;50.40;;;;;;5073161;28;20211;-43
2022/08/31 05:05:27;;;;;;;7.13;5.00;;;18.90;50.50;;;;;;5073143;28;20533;-42
2022/08/31 05:07:53;;;;;;;7.47;5.67;;;19.00;50.60;;;;;;5072801;28;20252;-43
2022/08/31 05:10:20;;;;;;;15.90;7.93;;;19.00;50.60;;;;;;5073160;28;20172;-41
2022/08/31 05:12:46;;;;;;;9.48;7.00;;;19.00;51.20;;;;;;5073239;28;20200;-42
2022/08/31 05:15:11;;;;;;;20.00;8.80;;;19.10;50.70;;;;;;5072936;28;20249;-42
2022/08/31 05:17:37;;;;;;;13.90;7.40;;;19.10;50.70;;;;;;5072689;28;20192;-43
2022/08/31 05:20:04;;;;;;;10.00;7.83;;;19.20;50.70;;;;;;5072098;28;20217;-43
2022/08/31 05:22:30;;;;;;;10.50;7.13;;;19.20;50.80;;;;;;5072855;28;20220;-44
2022/08/31 05:24:56;;;;;;;11.38;6.20;;;19.20;50.80;;;;;;5072911;28;20652;-45
2022/08/31 05:27:22;;;;;;;6.37;5.40;;;19.30;50.70;;;;;;5072662;28;20179;-42
2022/08/31 05:29:48;;;;;;;12.40;6.73;;;19.30;50.80;;;;;;5072781;28;20422;-42
2022/08/31 05:32:14;;;;;;;7.83;6.00;;;20.40;51.40;;;;;;5072715;28;20555;-43
2022/08/31 05:34:39;;;;;;;8.67;5.53;;;19.40;50.90;;;;;;5072680;28;20180;-43
2022/08/31 05:37:05;;;;;;;6.33;5.40;;;19.40;50.90;;;;;;5072232;28;20188;-44
2022/08/31 05:39:32;;;;;;;7.07;5.17;;;19.50;51.10;;;;;;5072567;28;20192;-44
2022/08/31 05:41:58;;;;;;;8.82;5.90;;;19.50;51.20;;;;;;5072743;28;20177;-44
2022/08/31 05:44:25;;;;;;;6.70;4.70;;;19.60;51.20;;;;;;5072398;28;20195;-44
2022/08/31 05:46:51;;;;;;;7.43;5.18;;;19.60;51.20;;;;;;5072174;28;20933;-45
2022/08/31 05:49:17;;;;;;;6.37;5.70;;;19.70;51.40;;;;;;5072657;28;20184;-42
2022/08/31 05:51:42;;;;;;;7.43;6.23;;;19.70;51.30;;;;;;5072266;28;20787;-44
2022/08/31 05:54:09;;;;;;;8.17;5.70;;;19.70;51.20;;;;;;5072329;28;20698;-43
2022/08/31 05:56:35;;;;;;;10.15;6.32;;;19.80;51.20;;;;;;5072241;28;20600;-44
2022/08/31 05:59:01;;;;;;;10.25;7.03;;;19.90;51.20;;;;;;5072392;28;20203;-43
2022/08/31 06:01:30;;;;;;;9.70;4.57;;;19.90;51.20;;;;;;5072256;28;20175;-44
2022/08/31 06:03:57;;;;;;;8.75;6.07;;;20.00;51.20;;;;;;5072086;28;20212;-43
2022/08/31 06:06:24;;;;;;;12.38;4.88;;;20.00;51.10;;;;;;5071860;28;20236;-43
2022/08/31 06:08:51;;;;;;;7.90;5.45;;;20.00;51.00;;;;;;5072372;28;20540;-42
2022/08/31 06:11:20;;;;;;;14.25;6.85;;;20.10;51.00;;;;;;5072176;28;20171;-43
2022/08/31 06:13:51;;;;;;;8.98;5.82;;;20.20;50.90;;;;;;5072126;28;20193;-43
2022/08/31 06:16:17;;;;;;;7.80;5.32;;;20.20;50.80;;;;;;5071895;28;20246;-42
2022/08/31 06:18:49;;;;;;;5.97;4.60;;;20.20;50.60;;;;;;5071977;28;20176;-42
2022/08/31 06:21:20;;;;;;;11.80;4.60;;;20.30;50.70;;;;;;5071932;28;20221;-42
2022/08/31 06:23:48;;;;;;;11.20;5.03;;;20.30;50.60;;;;;;5071950;28;20207;-43
2022/08/31 06:26:16;;;;;;;13.73;4.82;;;20.40;50.60;;;;;;5072084;28;20179;-44
2022/08/31 06:28:43;;;;;;;5.60;5.05;;;20.40;50.40;;;;;;5071917;28;20180;-41
2022/08/31 06:31:26;;;;;;;8.55;4.93;;;20.50;50.60;;;;;;5072452;28;20180;-43
2022/08/31 06:33:53;;;;;;;5.60;4.28;;;20.50;50.60;;;;;;5076035;28;20192;-43
2022/08/31 06:36:21;;;;;;;8.75;4.65;;;20.50;50.60;;;;;;5076171;28;20582;-43
2022/08/31 06:38:47;;;;;;;9.38;4.30;;;20.50;50.40;;;;;;5076067;28;20168;-43
2022/08/31 06:41:19;;;;;;;6.60;4.60;;;20.60;50.50;;;;;;5076334;28;20203;-43
2022/08/31 06:43:46;;;;;;;5.82;4.20;;;20.60;50.40;;;;;;5075872;28;20422;-43
2022/08/31 06:46:14;;;;;;;8.70;5.00;;;20.70;50.50;;;;;;5075797;28;20713;-43
2022/08/31 06:48:40;;;;;;;6.82;4.55;;;20.70;50.40;;;;;;5075848;28;20226;-43
2022/08/31 06:51:07;;;;;;;8.43;4.38;;;20.70;50.30;;;;;;5075803;28;20211;-43
2022/08/31 06:53:34;;;;;;;5.03;4.45;;;20.80;50.30;;;;;;5076231;28;20200;-43
2022/08/31 06:56:08;;;;;;;5.23;4.73;;;20.80;50.30;;;;;;5076779;28;20183;-43
2022/08/31 06:58:34;;;;;;;5.10;4.43;;;20.90;50.30;;;;;;5076641;28;20679;-43
2022/08/31 07:01:10;;;;;;;6.07;3.93;;;20.90;50.20;;;;;;5076147;28;20797;-43
2022/08/31 07:03:37;;;;;;;5.40;4.00;;;21.00;50.00;;;;;;5075401;28;20492;-43
2022/08/31 07:06:13;;;;;;;6.80;4.30;;;21.00;49.80;;;;;;5075477;28;20705;-43
2022/08/31 07:08:43;;;;;;;4.72;4.30;;;21.10;50.00;;;;;;5075503;28;20168;-43
2022/08/31 07:11:40;;;;;;;6.50;5.00;;;21.10;49.90;;;;;;5075527;28;20167;-43
2022/08/31 07:14:11;;;;;;;5.70;3.80;;;21.10;49.90;;;;;;5062873;28;20216;-43
2022/08/31 07:16:38;;;;;;;6.03;4.32;;;21.20;50.00;;;;;;5075448;28;20399;-43
2022/08/31 07:19:05;;;;;;;6.45;4.85;;;21.20;50.00;;;;;;5075329;28;20268;-43
2022/08/31 07:21:55;;;;;;;3.77;3.33;;;21.30;50.00;;;;;;5075388;28;20184;-43
2022/08/31 07:24:26;;;;;;;4.65;3.58;;;21.40;49.70;;;;;;5067701;28;20530;-43
2022/08/31 07:26:57;;;;;;;4.97;3.60;;;21.40;49.60;;;;;;5075060;28;20244;-43
2022/08/31 07:29:28;;;;;;;5.13;3.97;;;21.50;49.50;;;;;;5075404;28;20391;-42
2022/08/31 07:31:56;;;;;;;4.68;4.15;;;21.50;49.40;;;;;;5075361;28;20399;-43
2022/08/31 07:34:27;;;;;;;5.50;4.82;;;21.60;49.50;;;;;;5074963;28;20184;-43
2022/08/31 07:42:32;;;;;;;6.50;3.78;;;21.80;49.30;;;;;;5075447;28;20469;-43
2022/08/31 07:45:00;;;;;;;5.20;4.60;;;21.90;49.40;;;;;;5074570;28;20184;-43
2022/08/31 07:47:27;;;;;;;5.53;4.10;;;22.00;49.70;;;;;;5074710;28;20950;-44
2022/08/31 07:49:55;;;;;;;4.23;3.80;;;22.10;49.40;;;;;;5074969;28;20439;-43
2022/08/31 07:52:27;;;;;;;4.67;3.80;;;22.10;49.10;;;;;;5074468;28;20529;-43
2022/08/31 07:54:56;;;;;;;6.27;4.00;;;22.20;48.90;;;;;;5074606;28;20410;-43
2022/08/31 07:57:24;;;;;;;6.80;4.53;;;22.20;48.70;;;;;;5074658;28;20458;-45
2022/08/31 08:00:03;;;;;;;4.13;3.73;;;22.20;48.50;;;;;;5074517;28;20446;-44
2022/08/31 08:02:29;;;;;;;4.10;3.53;;;22.30;48.50;;;;;;5074259;28;20836;-43
2022/08/31 08:04:57;;;;;;;4.20;3.77;;;22.40;48.50;;;;;;5074344;28;20434;-45
2022/08/31 08:07:23;;;;;;;5.67;4.30;;;22.40;48.40;;;;;;5074359;28;20419;-44
2022/08/31 08:09:49;;;;;;;4.37;3.93;;;22.40;48.40;;;;;;5074320;28;20929;-44
2022/08/31 08:12:16;;;;;;;5.40;4.47;;;22.50;48.60;;;;;;5074440;28;20230;-44
2022/08/31 08:14:41;;;;;;;5.17;4.40;;;22.50;48.60;;;;;;5074270;28;20809;-45
2022/08/31 08:17:07;;;;;;;5.47;3.97;;;22.50;48.50;;;;;;5073758;28;20512;-44
2022/08/31 08:19:33;;;;;;;4.30;3.53;;;22.50;48.50;;;;;;5074030;28;20218;-45
2022/08/31 08:22:01;;;;;;;4.07;3.67;;;22.60;48.40;;;;;;5074072;28;20411;-45
2022/08/31 08:24:30;;;;;;;5.17;4.10;;;22.60;48.20;;;;;;5073960;28;20410;-44
2022/08/31 08:26:56;;;;;;;5.33;4.03;;;22.60;48.00;;;;;;5073704;28;20411;-46
2022/08/31 08:29:22;;;;;;;6.07;4.07;;;22.70;48.20;;;;;;5073914;28;20744;-45
2022/08/31 08:31:52;;;;;;;5.67;3.77;;;22.70;48.10;;;;;;5073999;28;20806;-42
2022/08/31 08:34:20;;;;;;;3.83;3.50;;;22.80;48.00;;;;;;5073750;28;21108;-44
2022/08/31 08:36:47;;;;;;;3.70;3.20;;;22.80;47.60;;;;;;5073706;28;20469;-45
2022/08/31 08:39:15;;;;;;;4.23;3.70;;;22.80;47.50;;;;;;5073877;28;20411;-45
2022/08/31 08:41:42;;;;;;;6.00;4.00;;;22.90;47.80;;;;;;5073738;28;20433;-44
2022/08/31 08:44:11;;;;;;;9.10;4.10;;;22.90;47.80;;;;;;5073620;28;20433;-43
2022/08/31 08:46:54;;;;;;;4.23;3.83;;;23.00;47.50;;;;;;5073275;28;20443;-46
2022/08/31 08:49:30;;;;;;;4.77;3.70;;;23.00;46.80;;;;;;5073463;28;20454;-45
2022/08/31 08:52:02;;;;;;;4.03;3.63;;;23.00;47.20;;;;;;5073410;28;20460;-46
2022/08/31 08:54:33;;;;;;;4.27;3.70;;;23.10;47.10;;;;;;5073516;28;20409;-46
2022/08/31 08:57:14;;;;;;;4.10;3.70;;;23.10;46.70;;;;;;5073039;28;20616;-45
2022/08/31 08:59:44;;;;;;;3.90;3.40;;;23.20;46.70;;;;;;5073374;28;20497;-45
2022/08/31 09:02:18;;;;;;;4.57;4.17;;;23.20;46.70;;;;;;5073054;28;20460;-44
2022/08/31 09:05:17;;;;;;;5.50;3.57;;;23.30;46.40;;;;;;5085146;22;20492;-40
2022/08/31 09:07:58;;;;;;;7.90;3.33;;;23.30;46.00;;;;;;5065747;28;20404;-40
2022/08/31 09:10:31;;;;;;;4.70;4.10;;;23.30;46.00;;;;;;5073100;28;20383;-40
2022/08/31 09:13:17;;;;;;;5.30;3.40;;;23.30;45.80;;;;;;5073674;28;20405;-40
2022/08/31 09:16:03;;;;;;;6.47;3.80;;;23.40;45.60;;;;;;5072806;28;20768;-41
2022/08/31 09:18:53;;;;;;;3.10;2.80;;;23.40;45.60;;;;;;5072844;28;20464;-41
2022/08/31 09:21:33;;;;;;;3.67;2.63;;;23.50;45.60;;;;;;5073051;28;20886;-41
2022/08/31 09:24:11;;;;;;;4.80;3.10;;;23.60;45.20;;;;;;5073434;28;20508;-42
2022/08/31 09:27:19;;;;;;;5.60;3.27;;;23.60;45.40;;;;;;5072965;28;20399;-42
2022/08/31 09:29:59;;;;;;;3.30;2.77;;;23.70;45.50;;;;;;5073173;28;20398;-42
2022/08/31 09:32:34;;;;;;;5.43;3.80;;;23.70;45.20;;;;;;5073424;28;20401;-42
2022/08/31 09:35:08;;;;;;;4.30;3.17;;;23.80;44.90;;;;;;5072941;28;20425;-43
2022/08/31 09:37:47;;;;;;;3.63;3.20;;;23.90;45.10;;;;;;5072670;28;20492;-42
2022/08/31 09:40:20;;;;;;;5.00;3.70;;;23.90;44.70;;;;;;5072961;28;20885;-41
2022/08/31 09:43:03;;;;;;;3.10;2.80;;;23.90;44.40;;;;;;5072686;28;20507;-43
2022/08/31 09:45:34;;;;;;;6.80;3.73;;;23.90;44.10;;;;;;5072353;28;20472;-42
2022/08/31 09:48:02;;;;;;;3.63;2.97;;;23.90;43.80;;;;;;5072323;28;20875;-42
2022/08/31 09:50:46;;;;;;;4.37;3.97;;;24.00;43.70;;;;;;5072365;28;20399;-42
2022/08/31 09:56:18;;;;;;;8.67;6.10;;;24.00;43.90;;;;;;5072091;28;20422;-42
2022/08/31 09:59:10;;;;;;;9.27;6.20;;;24.10;44.10;;;;;;5072497;28;20442;-41
2022/08/31 10:01:41;;;;;;;7.00;4.00;;;24.20;44.10;;;;;;5067587;28;20825;-42
2022/08/31 10:04:16;;;;;;;4.33;3.63;;;24.30;44.10;;;;;;5072171;28;20429;-42
2022/08/31 10:07:18;;;;;;;3.30;3.00;;;24.40;43.50;;;;;;5071467;28;20394;-43
2022/08/31 10:10:03;;;;;;;4.73;3.30;;;24.50;43.40;;;;;;5072119;28;20750;-41
2022/08/31 10:12:59;;;;;;;3.33;2.97;;;24.50;43.20;;;;;;5072157;28;20376;-42
2022/08/31 10:15:51;;;;;;;4.00;3.70;;;24.60;43.00;;;;;;5072135;28;20419;-44
2022/08/31 10:18:32;;;;;;;3.17;2.90;;;24.60;43.00;;;;;;5072052;28;20454;-43
2022/08/31 10:21:09;;;;;;;4.10;2.80;;;24.70;42.80;;;;;;5072105;28;20406;-42
2022/08/31 10:24:32;;;;;;;5.97;5.13;;;24.70;42.70;;;;;;5071980;28;20403;-44
2022/08/31 10:27:25;;;;;;;4.30;3.90;;;24.80;42.60;;;;;;5002288;28;20411;-42
2022/08/31 10:30:15;;;;;;;5.07;4.43;;;24.80;42.10;;;;;;5071951;28;21103;-42
2022/08/31 10:33:16;;;;;;;3.67;3.10;;;24.70;41.60;;;;;;5071973;28;20921;-42
2022/08/31 10:35:48;;;;;;;3.93;2.97;;;24.70;41.90;;;;;;5054516;28;20783;-42
2022/08/31 10:38:40;;;;;;;3.80;2.70;;;24.70;42.10;;;;;;5071909;28;20524;-41
2022/08/31 10:41:16;;;;;;;16.83;5.30;;;24.70;41.50;;;;;;5071877;28;20391;-42
2022/08/31 10:43:52;;;;;;;4.60;3.27;;;24.70;41.80;;;;;;5071847;28;20407;-42
2022/08/31 10:46:19;;;;;;;4.40;3.53;;;24.70;41.70;;;;;;5071506;28;20415;-42
2022/08/31 10:48:45;;;;;;;4.00;2.70;;;24.80;42.00;;;;;;5071843;28;20914;-42
2022/08/31 10:51:21;;;;;;;3.40;3.10;;;24.90;41.50;;;;;;5071717;28;20414;-42
2022/08/31 10:54:11;;;;;;;3.50;2.47;;;25.00;41.10;;;;;;5071860;28;20735;-42
2022/08/31 10:57:06;;;;;;;4.40;3.70;;;25.00;40.70;;;;;;5071776;28;20430;-42
2022/08/31 10:59:37;;;;;;;3.83;3.43;;;25.10;40.80;;;;;;5071682;28;20398;-42
2022/08/31 11:02:37;;;;;;;3.67;3.37;;;25.10;40.70;;;;;;5071641;28;20395;-42
2022/08/31 11:05:42;;;;;;;4.80;3.20;;;25.20;40.50;;;;;;5071463;28;20499;-42
2022/08/31 11:08:27;;;;;;;3.90;2.43;;;25.20;40.40;;;;;;5071646;28;20493;-42
2022/08/31 11:10:55;;;;;;;8.07;2.50;;;25.20;39.90;;;;;;5071808;28;20403;-42
2022/08/31 11:13:37;;;;;;;7.70;2.60;;;25.20;39.30;;;;;;5071366;28;20463;-42
2022/08/31 11:16:27;;;;;;;2.80;1.90;;;25.20;39.20;;;;;;5071233;28;20426;-42
2022/08/31 11:19:06;;;;;;;2.17;1.57;;;25.20;38.90;;;;;;5073079;28;20407;-42
2022/08/31 11:21:49;;;;;;;3.60;2.20;;;25.30;39.10;;;;;;5075403;28;20398;-42
2022/08/31 11:24:33;;;;;;;3.43;2.30;;;25.40;39.10;;;;;;5075136;28;20368;-42
2022/08/31 11:27:19;;;;;;;3.00;2.30;;;25.40;39.20;;;;;;5075010;28;20398;-42
2022/08/31 11:29:57;;;;;;;3.60;3.30;;;25.40;39.60;;;;;;5075248;28;20862;-41
2022/08/31 11:32:29;;;;;;;2.87;2.20;;;25.40;39.60;;;;;;5075363;28;20387;-42
2022/08/31 11:35:07;;;;;;;2.43;1.93;;;25.50;39.00;;;;;;5074940;28;20905;-42
2022/08/31 11:37:51;;;;;;;2.60;2.20;;;25.40;38.80;;;;;;5074718;28;20430;-42
2022/08/31 11:40:44;;;;;;;2.70;2.13;;;25.50;39.30;;;;;;5074915;28;20398;-42
2022/08/31 11:43:15;;;;;;;2.73;1.93;;;25.50;39.50;;;;;;5074865;28;20399;-43
2022/08/31 11:45:42;;;;;;;3.20;2.13;;;25.50;38.90;;;;;;5074515;28;20430;-43
2022/08/31 11:48:52;;;;;;;2.97;2.67;;;25.50;38.80;;;;;;5074852;28;20984;-43
2022/08/31 11:51:41;;;;;;;2.60;2.30;;;25.50;38.90;;;;;;5064448;28;20425;-43
2022/08/31 11:54:40;;;;;;;4.07;2.03;;;25.40;38.80;;;;;;5061400;28;20430;-43
2022/08/31 11:57:25;;;;;;;2.57;2.37;;;25.40;39.10;;;;;;5074119;28;20450;-43
2022/08/31 11:59:54;;;;;;;3.13;2.30;;;25.40;38.90;;;;;;5074848;28;20781;-43
2022/08/31 12:02:21;;;;;;;3.13;2.20;;;25.40;38.70;;;;;;5074492;28;20407;-43
2022/08/31 12:05:01;;;;;;;3.57;2.20;;;25.30;39.20;;;;;;5074333;28;20446;-43
2022/08/31 12:07:33;;;;;;;3.33;2.57;;;25.30;39.60;;;;;;5074643;28;20866;-41
2022/08/31 12:10:07;;;;;;;4.00;2.17;;;25.30;39.40;;;;;;5074725;28;20417;-41
2022/08/31 12:12:42;;;;;;;4.57;3.07;;;25.30;39.50;;;;;;5074703;28;20882;-41
2022/08/31 12:15:14;;;;;;;6.20;4.60;;;25.20;39.10;;;;;;5074368;28;20519;-41
2022/08/31 12:17:45;;;;;;;3.60;3.00;;;25.20;39.30;;;;;;5073994;28;20517;-41
2022/08/31 12:20:23;;;;;;;5.73;3.07;;;25.20;39.30;;;;;;5074096;28;20406;-41
2022/08/31 12:26:00;;;;;;;3.27;2.50;;;25.20;39.20;;;;;;5073902;28;20484;-41
2022/08/31 12:28:50;;;;;;;3.30;2.37;;;25.30;39.70;;;;;;5073934;28;20391;-41
2022/08/31 12:31:17;;;;;;;2.57;1.83;;;25.30;39.90;;;;;;5073915;28;20441;-41
2022/08/31 12:34:11;;;;;;;2.57;1.83;;;25.40;39.80;;;;;;5073749;28;20421;-41
2022/08/31 12:36:38;;;;;;;2.43;1.70;;;25.50;39.50;;;;;;5073526;28;20958;-41
2022/08/31 12:39:09;;;;;;;4.77;2.03;;;25.60;39.10;;;;;;5073702;28;20399;-41
2022/08/31 12:41:42;;;;;;;3.90;2.30;;;25.70;39.00;;;;;;5073843;28;20379;-41
2022/08/31 12:44:08;;;;;;;3.77;1.67;;;25.80;39.00;;;;;;5073607;28;20748;-41
2022/08/31 12:47:04;;;;;;;1.90;1.70;;;25.80;38.80;;;;;;5073501;28;20486;-41
2022/08/31 12:49:48;;;;;;;2.30;1.80;;;25.90;38.50;;;;;;5073578;28;20180;-41
2022/08/31 12:52:32;;;;;;;2.10;1.90;;;25.90;37.80;;;;;;5073632;28;20691;-40
2022/08/31 12:55:11;;;;;;;2.83;2.53;;;25.90;37.40;;;;;;5073505;28;20917;-41
2022/08/31 12:58:12;;;;;;;2.60;2.40;;;25.80;37.10;;;;;;5073143;28;20926;-41
2022/08/31 13:00:39;;;;;;;3.10;2.03;;;25.80;37.30;;;;;;5073483;28;20402;-41
2022/08/31 13:03:27;;;;;;;2.67;1.70;;;25.70;37.60;;;;;;5073384;28;20502;-41
2022/08/31 13:06:02;;;;;;;5.30;1.80;;;25.70;37.80;;;;;;5072800;28;20443;-41
2022/08/31 13:08:35;;;;;;;2.90;1.90;;;25.60;37.20;;;;;;5073197;28;20406;-41
2022/08/31 13:11:25;;;;;;;3.40;2.00;;;25.60;37.20;;;;;;5073195;28;20392;-40
2022/08/31 13:14:05;;;;;;;1.93;1.40;;;25.50;36.40;;;;;;5073049;28;20437;-41
2022/08/31 13:16:31;;;;;;;6.13;1.70;;;25.40;37.00;;;;;;5072817;28;20894;-41
2022/08/31 13:19:06;;;;;;;3.40;1.93;;;25.40;37.80;;;;;;5073202;28;20445;-41
2022/08/31 13:21:34;;;;;;;6.50;1.90;;;25.30;38.00;;;;;;5072959;28;20390;-41
2022/08/31 13:24:09;;;;;;;3.63;2.53;;;25.20;38.30;;;;;;5073496;28;20740;-40
2022/08/31 13:26:36;;;;;;;3.50;1.93;;;25.20;38.70;;;;;;5072548;28;20724;-41